Yelizovo, Russia
Current Conditions -  °F | °C
As of 9:00 PM on Wednesday 22 Oct 2014 (Local Time) from UHPP Reporting Station
Clear Clear  
Wind Chill: 22°   Ceiling: Unl
Heat Index: 30°   Visibility: 6mi
Dew Point: 14°   Wind: 9mph
Humidity: 51%   Direction: 350°N
Pressure: 29.65"   Gusts: NA
Location:  53.18°N, 158.38°E
Report Text: UHPP 220900Z 35004MPS 9999 NSC M01/M10 Q1004 NOSIG RMKQFE750/1000 SC070
Loading
Personal Weather Stations






























Interactive Weather Map
Tropical Storm Tracking
New forecast layout! Learn more

10-Day Weather Forecast

Advertisements
Track Severe Weather on mobile